createdAt,value
2023-01-27T00:00:00.148Z,13.47
2023-01-27T00:02:21.724Z,12.63
2023-01-27T00:04:43.172Z,11.87
2023-01-27T00:07:04.678Z,11.30
2023-01-27T00:09:26.103Z,12.60
2023-01-27T00:12:06.283Z,10.73
2023-01-27T00:14:27.840Z,10.33
2023-01-27T00:16:49.424Z,10.57
2023-01-27T00:19:10.863Z,12.87
2023-01-27T00:21:51.037Z,10.00
2023-01-27T00:24:31.560Z,9.83
2023-01-27T00:26:53.047Z,9.07
2023-01-27T00:29:14.568Z,9.87
2023-01-27T00:31:54.874Z,8.87
2023-01-27T00:34:16.370Z,9.73
2023-01-27T00:36:39.730Z,9.67
2023-01-27T00:39:01.146Z,9.30
2023-01-27T00:41:23.335Z,10.43
2023-01-27T00:43:48.941Z,9.97
2023-01-27T00:46:10.490Z,10.13
2023-01-27T00:48:32.078Z,10.40
2023-01-27T00:50:53.625Z,10.03
2023-01-27T00:53:15.049Z,10.63
2023-01-27T00:55:36.494Z,10.63
2023-01-27T00:57:57.951Z,9.83
2023-01-27T01:00:19.559Z,10.30
2023-01-27T01:02:41.032Z,11.30
2023-01-27T01:05:03.134Z,10.57
2023-01-27T01:07:25.446Z,11.23
2023-01-27T01:09:46.916Z,10.60
2023-01-27T01:12:08.339Z,11.03
2023-01-27T01:14:29.818Z,10.50
2023-01-27T01:16:51.274Z,10.03
2023-01-27T01:19:13.232Z,10.60
2023-01-27T01:21:34.773Z,10.10
2023-01-27T01:23:56.266Z,9.33
2023-01-27T01:26:18.157Z,8.77
2023-01-27T01:28:39.644Z,9.80
2023-01-27T01:31:09.831Z,8.80
2023-01-27T01:33:31.301Z,9.03
2023-01-27T01:35:52.771Z,8.50
2023-01-27T01:38:14.425Z,8.50
2023-01-27T01:40:44.186Z,8.30
2023-01-27T01:43:11.804Z,7.80
2023-01-27T01:45:36.749Z,8.40
2023-01-27T01:48:01.065Z,8.30
2023-01-27T01:50:22.630Z,8.50
2023-01-27T01:52:44.178Z,8.87
2023-01-27T01:55:05.930Z,8.57
2023-01-27T01:57:34.503Z,8.30
2023-01-27T02:00:03.162Z,7.60
2023-01-27T02:02:26.656Z,7.30
2023-01-27T02:04:54.915Z,7.77
2023-01-27T02:07:27.469Z,7.80
2023-01-27T02:09:49.606Z,6.97
2023-01-27T02:12:11.108Z,7.83
2023-01-27T02:14:33.516Z,7.70
2023-01-27T02:16:55.148Z,7.87
2023-01-27T02:19:33.019Z,8.20
2023-01-27T02:21:56.710Z,8.10
2023-01-27T02:24:19.770Z,7.33
2023-01-27T02:26:44.103Z,7.33
2023-01-27T02:29:11.360Z,7.40
2023-01-27T02:31:33.355Z,7.73
2023-01-27T02:34:00.105Z,8.30
2023-01-27T02:36:21.661Z,8.10
2023-01-27T02:38:47.495Z,7.97
2023-01-27T02:41:15.879Z,8.00
2023-01-27T02:43:37.308Z,8.43
2023-01-27T02:45:58.849Z,7.30
2023-01-27T02:48:20.295Z,7.63
2023-01-27T02:50:41.823Z,7.03
2023-01-27T02:53:03.374Z,7.27
2023-01-27T02:55:24.883Z,7.67
2023-01-27T02:57:46.290Z,7.60
2023-01-27T03:00:09.791Z,6.53
2023-01-27T03:02:31.293Z,5.90
2023-01-27T03:04:52.714Z,6.20
2023-01-27T03:07:14.169Z,6.57
2023-01-27T03:09:35.619Z,6.10
2023-01-27T03:12:15.883Z,5.63
2023-01-27T03:14:56.105Z,6.07
2023-01-27T03:17:36.222Z,5.90
2023-01-27T03:19:57.677Z,5.93
2023-01-27T03:22:20.231Z,5.70
2023-01-27T03:24:41.639Z,6.17
2023-01-27T03:27:03.142Z,8.50
2023-01-27T03:29:43.992Z,6.93
2023-01-27T03:32:05.521Z,7.10
2023-01-27T03:34:26.941Z,6.60
2023-01-27T03:37:06.963Z,6.37
2023-01-27T03:39:48.787Z,6.40
2023-01-27T03:42:28.906Z,6.70
2023-01-27T03:45:08.829Z,6.10
2023-01-27T03:47:30.262Z,6.30
2023-01-27T03:49:54.387Z,7.13
2023-01-27T03:52:16.879Z,6.60
2023-01-27T03:54:38.375Z,6.60
2023-01-27T03:57:06.468Z,7.47
2023-01-27T03:59:28.089Z,7.00
2023-01-27T04:01:49.722Z,6.97
2023-01-27T04:04:30.719Z,7.77
2023-01-27T04:06:52.215Z,7.00
2023-01-27T04:09:20.295Z,7.67
2023-01-27T04:11:56.692Z,6.23
2023-01-27T04:14:18.429Z,5.70
2023-01-27T04:16:39.998Z,5.80
2023-01-27T04:19:01.430Z,6.33
2023-01-27T04:21:23.808Z,5.77
2023-01-27T04:23:45.267Z,5.83
2023-01-27T04:26:06.870Z,6.63
2023-01-27T04:28:41.974Z,6.27
2023-01-27T04:31:05.731Z,5.93
2023-01-27T04:33:27.222Z,6.33
2023-01-27T04:35:51.178Z,6.17
2023-01-27T04:38:13.731Z,6.17
2023-01-27T04:40:35.196Z,5.60
2023-01-27T04:42:58.196Z,5.53
2023-01-27T04:45:19.729Z,5.67
2023-01-27T04:47:41.143Z,5.53
2023-01-27T04:50:02.578Z,5.57
2023-01-27T04:52:24.140Z,5.20
2023-01-27T04:54:45.555Z,5.20
2023-01-27T04:57:07.060Z,5.77
2023-01-27T04:59:28.538Z,4.97
2023-01-27T05:01:50.450Z,5.07
2023-01-27T05:04:11.952Z,4.63
2023-01-27T05:06:34.031Z,4.30
2023-01-27T05:08:55.575Z,4.87
2023-01-27T05:11:17.980Z,5.40
2023-01-27T05:13:40.835Z,4.90
2023-01-27T05:16:07.433Z,5.00
2023-01-27T05:18:28.893Z,3.87
2023-01-27T05:20:51.517Z,4.53
2023-01-27T05:23:32.212Z,4.20
2023-01-27T05:25:53.668Z,4.67
2023-01-27T05:28:15.097Z,4.10
2023-01-27T05:30:36.868Z,4.53
2023-01-27T05:32:58.300Z,4.23
2023-01-27T05:35:19.750Z,4.30
2023-01-27T05:37:41.187Z,4.00
2023-01-27T05:40:02.627Z,4.10
2023-01-27T05:42:24.095Z,4.00
2023-01-27T05:44:45.527Z,3.60
2023-01-27T05:47:07.024Z,3.97
2023-01-27T05:49:28.518Z,3.57
2023-01-27T05:51:49.995Z,2.87
2023-01-27T05:54:11.454Z,3.90
2023-01-27T05:56:33.711Z,3.30
2023-01-27T05:58:56.680Z,7.30
2023-01-27T06:01:23.816Z,14.70
2023-01-27T06:03:46.349Z,8.17
2023-01-27T06:06:08.557Z,5.20
2023-01-27T06:08:30.476Z,12.37
2023-01-27T06:11:05.998Z,5.00
2023-01-27T06:13:27.772Z,6.10
2023-01-27T06:15:50.190Z,6.60
2023-01-27T06:18:12.240Z,11.87
2023-01-27T06:20:33.725Z,4.73
2023-01-27T06:22:55.222Z,7.10
2023-01-27T06:25:17.036Z,4.77
2023-01-27T06:27:38.525Z,4.80
2023-01-27T06:29:59.941Z,3.70
2023-01-27T06:32:21.476Z,3.37
2023-01-27T06:34:42.913Z,3.70
2023-01-27T06:37:04.582Z,3.47
2023-01-27T06:39:26.011Z,3.57
2023-01-27T06:41:49.862Z,3.50
2023-01-27T06:44:11.343Z,3.47
2023-01-27T06:46:32.883Z,3.47
2023-01-27T06:48:54.375Z,4.07
2023-01-27T06:51:15.816Z,3.33
2023-01-27T06:53:38.769Z,3.80
2023-01-27T06:56:01.099Z,3.83
2023-01-27T06:58:22.905Z,4.43
2023-01-27T07:00:44.565Z,4.47
2023-01-27T07:03:06.560Z,5.40
2023-01-27T07:05:28.032Z,6.30
2023-01-27T07:07:49.489Z,5.03
2023-01-27T07:10:24.041Z,5.03
2023-01-27T07:12:45.516Z,4.90
2023-01-27T07:15:08.860Z,5.20
2023-01-27T07:17:30.313Z,4.93
2023-01-27T07:19:51.744Z,5.00
2023-01-27T07:22:13.223Z,5.13
2023-01-27T07:24:34.736Z,4.40
2023-01-27T07:26:56.264Z,4.40
2023-01-27T07:29:18.064Z,4.87
2023-01-27T07:31:39.845Z,4.30
2023-01-27T07:34:01.284Z,3.30
2023-01-27T07:36:22.872Z,3.70
2023-01-27T07:38:44.354Z,3.37
2023-01-27T07:41:06.830Z,3.30
2023-01-27T07:43:28.235Z,3.13
2023-01-27T07:45:54.720Z,3.50
2023-01-27T07:48:16.568Z,3.33
2023-01-27T07:50:41.439Z,4.53
2023-01-27T07:53:04.772Z,4.10
2023-01-27T07:55:26.255Z,4.00
2023-01-27T07:57:47.676Z,3.90
2023-01-27T08:00:10.442Z,3.23
2023-01-27T08:02:32.036Z,4.00
2023-01-27T08:04:53.998Z,4.90
2023-01-27T08:07:15.847Z,5.40
2023-01-27T08:09:37.262Z,4.87
2023-01-27T08:11:58.737Z,6.17
2023-01-27T08:14:20.184Z,5.80
2023-01-27T08:16:41.729Z,4.13
2023-01-27T08:19:03.204Z,3.60
2023-01-27T08:21:25.436Z,3.07
2023-01-27T08:23:47.177Z,3.27
2023-01-27T08:26:08.780Z,3.40
2023-01-27T08:28:32.168Z,2.97
2023-01-27T08:30:54.353Z,3.27
2023-01-27T08:33:15.785Z,3.47
2023-01-27T08:35:39.095Z,3.50
2023-01-27T08:38:00.655Z,2.80
2023-01-27T08:40:22.159Z,2.93
2023-01-27T08:42:43.620Z,2.47
2023-01-27T08:45:05.540Z,2.37
2023-01-27T08:47:27.003Z,2.00
2023-01-27T08:49:49.156Z,2.27
2023-01-27T08:52:10.886Z,2.70
2023-01-27T08:54:32.434Z,3.03
2023-01-27T08:56:53.940Z,3.10
2023-01-27T08:59:15.350Z,3.50
2023-01-27T09:01:36.932Z,3.10
2023-01-27T09:03:58.397Z,3.00
2023-01-27T09:06:21.787Z,5.20
2023-01-27T09:08:44.697Z,3.10
2023-01-27T09:11:10.446Z,2.73
2023-01-27T09:13:31.893Z,5.43
2023-01-27T09:15:53.883Z,2.60
2023-01-27T09:18:15.354Z,2.13
2023-01-27T09:20:39.546Z,2.00
2023-01-27T09:23:02.484Z,2.70
2023-01-27T09:25:24.513Z,3.17
2023-01-27T09:27:46.376Z,2.40
2023-01-27T09:30:10.856Z,2.20
2023-01-27T09:32:32.495Z,2.13
2023-01-27T09:34:53.946Z,2.63
2023-01-27T09:37:15.703Z,2.07
2023-01-27T09:39:47.807Z,2.40
2023-01-27T09:42:27.696Z,2.50
2023-01-27T09:45:10.735Z,2.30
2023-01-27T09:47:46.473Z,3.13
2023-01-27T09:50:29.108Z,2.87
2023-01-27T09:52:58.250Z,2.40
2023-01-27T09:55:28.341Z,1.80
2023-01-27T09:58:10.992Z,1.90
2023-01-27T10:01:03.257Z,1.67
2023-01-27T10:04:02.505Z,1.90
2023-01-27T10:06:35.775Z,2.10
2023-01-27T10:08:57.191Z,1.57
2023-01-27T10:11:21.864Z,2.10
2023-01-27T10:13:45.945Z,1.53
2023-01-27T10:16:45.897Z,1.77
2023-01-27T10:19:51.818Z,1.77
2023-01-27T10:22:29.267Z,1.60
2023-01-27T10:25:15.792Z,1.80
2023-01-27T10:27:41.537Z,1.80
2023-01-27T10:30:18.111Z,1.40
2023-01-27T10:32:42.611Z,1.53
2023-01-27T10:35:22.631Z,0.93
2023-01-27T10:38:08.985Z,1.50
2023-01-27T10:40:42.495Z,3.30
2023-01-27T10:43:56.482Z,3.00
2023-01-27T10:46:47.459Z,3.00
2023-01-27T10:49:25.439Z,2.20
2023-01-27T10:51:52.547Z,4.57
2023-01-27T10:54:25.062Z,3.50
2023-01-27T10:56:57.072Z,2.13
2023-01-27T10:59:37.207Z,2.00
2023-01-27T11:02:14.432Z,1.60
2023-01-27T11:04:46.785Z,1.83
2023-01-27T11:07:16.216Z,1.60
2023-01-27T11:10:05.973Z,1.80
2023-01-27T11:12:34.630Z,1.70
2023-01-27T11:14:56.685Z,2.10
2023-01-27T11:17:52.515Z,1.50
2023-01-27T11:20:23.066Z,1.30
2023-01-27T11:22:54.038Z,1.87
2023-01-27T11:25:33.833Z,2.97
2023-01-27T11:28:04.248Z,1.97
2023-01-27T11:30:33.986Z,1.77
2023-01-27T11:33:10.761Z,1.97
2023-01-27T11:35:32.290Z,2.10
2023-01-27T11:38:00.623Z,1.63
2023-01-27T11:40:38.404Z,1.70
2023-01-27T11:43:01.854Z,1.90
2023-01-27T11:45:24.439Z,1.80
2023-01-27T11:47:49.368Z,1.63
2023-01-27T11:50:18.839Z,1.93
2023-01-27T11:52:40.318Z,1.40
2023-01-27T11:55:13.697Z,1.53
2023-01-27T11:57:37.694Z,1.47
2023-01-27T12:00:05.595Z,1.63
2023-01-27T12:02:38.277Z,1.73
2023-01-27T12:05:05.230Z,1.80
2023-01-27T12:07:42.250Z,2.00
2023-01-27T12:10:22.487Z,2.30
2023-01-27T12:12:44.571Z,2.17
2023-01-27T12:15:14.509Z,1.70
2023-01-27T12:17:40.634Z,2.00
2023-01-27T12:20:26.741Z,1.63
2023-01-27T12:22:53.226Z,1.63
2023-01-27T12:25:20.273Z,2.20
2023-01-27T12:27:49.832Z,2.43
2023-01-27T12:30:36.963Z,2.53
2023-01-27T12:32:59.910Z,2.60
2023-01-27T12:35:26.002Z,2.57
2023-01-27T12:37:48.779Z,1.97
2023-01-27T12:40:20.009Z,2.50
2023-01-27T12:42:44.247Z,2.23
2023-01-27T12:45:29.954Z,3.33
2023-01-27T12:47:57.127Z,2.33
2023-01-27T12:50:28.049Z,1.90
2023-01-27T12:53:27.194Z,2.43
2023-01-27T12:58:59.188Z,2.20
2023-01-27T13:01:20.610Z,2.03
2023-01-27T13:04:07.189Z,2.30
2023-01-27T13:06:50.554Z,2.10
2023-01-27T13:09:35.593Z,2.60
2023-01-27T13:12:00.581Z,2.50
2023-01-27T13:14:22.079Z,2.37
2023-01-27T13:16:54.841Z,2.57
2023-01-27T13:19:18.140Z,3.07
2023-01-27T13:21:39.699Z,4.50
2023-01-27T13:24:05.482Z,3.97
2023-01-27T13:26:30.728Z,6.07
2023-01-27T13:28:58.352Z,3.13
2023-01-27T13:31:50.593Z,3.10
2023-01-27T13:34:21.034Z,2.40
2023-01-27T13:36:56.754Z,3.07
2023-01-27T13:39:54.753Z,3.10
2023-01-27T13:42:37.510Z,3.70
2023-01-27T13:45:22.556Z,2.97
2023-01-27T13:48:02.097Z,2.73
2023-01-27T13:50:33.155Z,2.57
2023-01-27T13:52:57.883Z,2.47
2023-01-27T13:55:49.651Z,2.77
2023-01-27T13:58:54.751Z,2.50
2023-01-27T14:01:42.123Z,2.50
2023-01-27T14:04:11.335Z,3.00
2023-01-27T14:07:06.656Z,3.50
2023-01-27T14:10:03.363Z,4.60
2023-01-27T14:12:36.677Z,3.47
2023-01-27T14:15:06.691Z,4.20
2023-01-27T14:17:45.927Z,4.37
2023-01-27T14:20:18.367Z,4.53
2023-01-27T14:22:56.205Z,5.80
2023-01-27T14:25:17.869Z,6.50
2023-01-27T14:27:48.679Z,4.10
2023-01-27T14:30:13.683Z,4.43
2023-01-27T14:32:56.262Z,4.60
2023-01-27T14:35:23.566Z,4.40
2023-01-27T14:38:05.359Z,4.13
2023-01-27T14:40:38.041Z,4.93
2023-01-27T14:43:16.815Z,3.70
2023-01-27T14:45:43.409Z,5.10
2023-01-27T14:48:10.875Z,5.03
2023-01-27T14:50:52.180Z,4.80
2023-01-27T14:53:19.487Z,3.43
2023-01-27T14:56:02.383Z,6.77
2023-01-27T14:58:40.961Z,4.43
2023-01-27T15:01:10.626Z,3.17
2023-01-27T15:04:05.624Z,3.30
2023-01-27T15:06:47.756Z,3.40
2023-01-27T15:09:17.127Z,3.80
2023-01-27T15:11:58.861Z,4.40
2023-01-27T15:14:57.706Z,5.30
2023-01-27T15:17:38.601Z,6.10
2023-01-27T15:20:18.794Z,5.00
2023-01-27T15:23:21.656Z,5.80
2023-01-27T15:25:48.569Z,7.67
2023-01-27T15:28:15.179Z,8.10
2023-01-27T15:30:38.524Z,7.03
2023-01-27T15:33:00.331Z,3.50
2023-01-27T15:35:36.532Z,5.37
2023-01-27T15:37:59.736Z,6.73
2023-01-27T15:40:23.073Z,4.30
2023-01-27T15:42:55.197Z,3.83
2023-01-27T15:45:27.746Z,4.23
2023-01-27T15:48:17.255Z,3.57
2023-01-27T15:50:46.260Z,3.23
2023-01-27T15:53:20.635Z,3.50
2023-01-27T15:55:52.197Z,3.47
2023-01-27T15:58:22.697Z,3.30
2023-01-27T16:00:52.467Z,3.33
2023-01-27T16:03:23.584Z,5.30
2023-01-27T16:05:49.387Z,4.87
2023-01-27T16:08:16.227Z,4.10
2023-01-27T16:10:38.296Z,3.57
2023-01-27T16:13:14.796Z,3.40
2023-01-27T16:15:37.172Z,3.07
2023-01-27T16:18:07.398Z,3.80
2023-01-27T16:20:43.880Z,3.80
2023-01-27T16:23:11.762Z,3.27
2023-01-27T16:25:45.163Z,3.90
2023-01-27T16:28:30.828Z,5.10
2023-01-27T16:31:01.520Z,5.53
2023-01-27T16:33:31.082Z,5.00
2023-01-27T16:36:06.238Z,5.43
2023-01-27T16:38:38.211Z,4.30
2023-01-27T16:41:14.670Z,5.43
2023-01-27T16:43:48.751Z,5.07
2023-01-27T16:46:39.818Z,4.60
2023-01-27T16:49:05.532Z,4.07
2023-01-27T16:51:28.950Z,3.70
2023-01-27T16:53:52.345Z,3.70
2023-01-27T16:56:24.795Z,4.63
2023-01-27T16:58:49.940Z,3.67
2023-01-27T17:01:45.233Z,4.73
2023-01-27T17:04:19.524Z,4.73
2023-01-27T17:06:42.591Z,4.03
2023-01-27T17:09:19.961Z,5.00
2023-01-27T17:11:41.774Z,4.07
2023-01-27T17:14:28.565Z,4.50
2023-01-27T17:16:51.385Z,5.50
2023-01-27T17:19:20.144Z,7.70
2023-01-27T17:21:46.908Z,16.37
2023-01-27T17:24:25.168Z,6.80
2023-01-27T17:26:49.624Z,18.27
2023-01-27T17:29:22.937Z,15.90
2023-01-27T17:31:44.615Z,21.87
2023-01-27T17:34:06.408Z,11.27
2023-01-27T17:36:27.999Z,6.23
2023-01-27T17:38:51.185Z,9.90
2023-01-27T17:41:26.637Z,8.40
2023-01-27T17:43:48.751Z,9.70
2023-01-27T17:46:26.365Z,6.37
2023-01-27T17:48:58.912Z,3.73
2023-01-27T17:51:24.951Z,5.50
2023-01-27T17:53:47.260Z,5.33
2023-01-27T17:56:33.737Z,5.60
2023-01-27T17:59:03.229Z,5.60
2023-01-27T18:01:24.733Z,7.27
2023-01-27T18:03:49.554Z,7.47
2023-01-27T18:06:14.418Z,5.07
2023-01-27T18:08:36.723Z,7.00
2023-01-27T18:11:20.263Z,4.40
2023-01-27T18:13:41.673Z,4.10
2023-01-27T18:16:20.678Z,4.07
2023-01-27T18:18:42.575Z,4.67
2023-01-27T18:21:03.970Z,4.97
2023-01-27T18:23:32.648Z,4.87
2023-01-27T18:26:25.085Z,5.57
2023-01-27T18:28:51.656Z,6.40
2023-01-27T18:31:26.027Z,7.67
2023-01-27T18:33:56.273Z,4.13
2023-01-27T18:36:21.510Z,3.77
2023-01-27T18:38:49.123Z,4.77
2023-01-27T18:41:18.800Z,6.90
2023-01-27T18:43:40.273Z,5.87
2023-01-27T18:46:01.760Z,4.80
2023-01-27T18:48:23.432Z,5.40
2023-01-27T18:50:46.737Z,4.13
2023-01-27T18:53:20.514Z,4.60
2023-01-27T18:55:42.326Z,2.90
2023-01-27T18:58:03.853Z,2.90
2023-01-27T19:00:35.888Z,3.60
2023-01-27T19:03:00.940Z,3.47
2023-01-27T19:05:26.150Z,4.10
2023-01-27T19:07:47.901Z,3.10
2023-01-27T19:10:15.289Z,3.30
2023-01-27T19:12:36.744Z,3.37
2023-01-27T19:14:58.234Z,4.67
2023-01-27T19:17:23.133Z,4.70
2023-01-27T19:19:44.604Z,4.87
2023-01-27T19:22:13.624Z,4.73
2023-01-27T19:24:35.045Z,5.97
2023-01-27T19:26:56.497Z,5.47
2023-01-27T19:29:17.924Z,6.63
2023-01-27T19:31:40.632Z,6.73
2023-01-27T19:34:02.244Z,8.57
2023-01-27T19:36:43.696Z,7.73
2023-01-27T19:39:07.823Z,5.27
2023-01-27T19:41:29.278Z,6.27
2023-01-27T19:43:50.737Z,5.33
2023-01-27T19:46:15.411Z,4.70
2023-01-27T19:48:36.839Z,5.67
2023-01-27T19:50:58.362Z,6.67
2023-01-27T19:53:20.315Z,5.90
2023-01-27T19:55:42.346Z,4.80
2023-01-27T19:58:04.140Z,4.63
2023-01-27T20:00:25.551Z,5.47
2023-01-27T20:02:47.070Z,5.33
2023-01-27T20:05:08.521Z,5.80
2023-01-27T20:07:30.046Z,4.73
2023-01-27T20:09:55.106Z,4.93
2023-01-27T20:12:18.286Z,4.70
2023-01-27T20:14:39.795Z,4.90
2023-01-27T20:17:01.632Z,4.80
2023-01-27T20:19:23.566Z,4.80
2023-01-27T20:21:46.236Z,4.93
2023-01-27T20:24:08.093Z,5.57
2023-01-27T20:26:31.238Z,5.50
2023-01-27T20:28:52.730Z,5.63
2023-01-27T20:31:23.251Z,5.00
2023-01-27T20:33:56.852Z,4.93
2023-01-27T20:36:21.444Z,4.50
2023-01-27T20:38:45.007Z,4.10
2023-01-27T20:41:09.999Z,4.83
2023-01-27T20:43:35.319Z,4.90
2023-01-27T20:46:08.112Z,5.13
2023-01-27T20:48:29.600Z,4.63
2023-01-27T20:51:00.727Z,5.17
2023-01-27T20:53:23.301Z,4.77
2023-01-27T20:55:44.786Z,4.70
2023-01-27T20:58:06.351Z,4.37
2023-01-27T21:00:27.896Z,4.70
2023-01-27T21:02:49.698Z,4.17
2023-01-27T21:05:12.750Z,5.20
2023-01-27T21:07:34.614Z,4.30
2023-01-27T21:09:56.200Z,3.70
2023-01-27T21:12:17.674Z,4.40
2023-01-27T21:14:40.082Z,4.13
2023-01-27T21:17:02.652Z,4.03
2023-01-27T21:19:25.451Z,4.10
2023-01-27T21:21:47.203Z,4.33
2023-01-27T21:24:09.797Z,3.97
2023-01-27T21:26:33.347Z,4.37
2023-01-27T21:28:54.928Z,3.80
2023-01-27T21:31:18.919Z,4.20
2023-01-27T21:33:40.465Z,3.93
2023-01-27T21:36:03.413Z,4.07
2023-01-27T21:38:24.897Z,3.50
2023-01-27T21:40:46.387Z,3.93
2023-01-27T21:43:28.774Z,4.40
2023-01-27T21:46:02.572Z,3.93
2023-01-27T21:48:23.998Z,4.00
2023-01-27T21:50:51.667Z,4.20
2023-01-27T21:53:13.131Z,3.80
2023-01-27T21:55:35.431Z,4.10
2023-01-27T21:57:56.964Z,5.00
2023-01-27T22:04:06.298Z,3.70
2023-01-27T22:06:28.298Z,3.90
2023-01-27T22:08:51.817Z,3.90
2023-01-27T22:11:13.450Z,4.03
2023-01-27T22:13:39.297Z,3.77
2023-01-27T22:16:03.803Z,4.00
2023-01-27T22:18:25.301Z,3.10
2023-01-27T22:20:46.838Z,3.23
2023-01-27T22:23:08.277Z,3.90
2023-01-27T22:25:30.873Z,3.83
2023-01-27T22:27:54.468Z,3.97
2023-01-27T22:30:18.373Z,3.60
2023-01-27T22:32:40.451Z,3.33
2023-01-27T22:35:01.961Z,3.63
2023-01-27T22:37:23.465Z,4.80
2023-01-27T22:39:45.608Z,4.63
2023-01-27T22:42:07.072Z,4.20
2023-01-27T22:44:28.494Z,4.63
2023-01-27T22:46:50.870Z,4.97
2023-01-27T22:49:12.341Z,4.80
2023-01-27T22:51:33.837Z,4.80
2023-01-27T22:53:55.740Z,5.07
2023-01-27T22:56:17.308Z,6.40
2023-01-27T22:58:38.739Z,7.10
2023-01-27T23:01:00.369Z,6.07
2023-01-27T23:03:22.652Z,6.27
2023-01-27T23:05:45.181Z,6.17
2023-01-27T23:08:06.677Z,6.00
2023-01-27T23:10:28.831Z,7.10
2023-01-27T23:12:50.583Z,9.20
2023-01-27T23:15:12.977Z,5.90
2023-01-27T23:17:35.724Z,6.93
2023-01-27T23:19:57.254Z,5.80
2023-01-27T23:22:20.008Z,6.87
2023-01-27T23:24:41.608Z,6.13
2023-01-27T23:27:03.127Z,6.10
2023-01-27T23:29:26.782Z,5.40
2023-01-27T23:31:49.563Z,5.50
2023-01-27T23:34:11.061Z,5.40
2023-01-27T23:36:32.839Z,5.73
2023-01-27T23:38:54.329Z,5.80
2023-01-27T23:41:18.540Z,6.07
2023-01-27T23:43:41.946Z,5.70
2023-01-27T23:46:03.563Z,6.23
2023-01-27T23:48:25.510Z,6.30
2023-01-27T23:50:49.481Z,6.27
2023-01-27T23:53:11.168Z,6.73
2023-01-27T23:55:33.135Z,6.27
2023-01-27T23:57:54.690Z,6.63
